Ana Sayfa
METAR-TAF:

METAR-TAF

Havaalanları :

Chandler Regional Airport

Chandler, Oklahoma, Amerika Birleşik Devletleri

Enlem: 35-43-26N, Boylam: 096-49-13W, yükseklik: 300 m

Güncel hava durumu gözlemi

Rapor saat 22:35 UTC de 24 dakika önce yapıldı.
Rüzgar doğudan 12 kt
Sıcaklık 25°C
Nem 69%
Basınç 1017 hPa
Görüş mesafesi: 16.1 km
Açık gökyüzü

METAR: KCQB 282235Z AUTO 10012KT 10SM CLR 25/19 A3004 RMK AO2 T02530188

Saat: 17:59 (22:59 UTC)


TAF: eksik

4.000'den fazla havaalanı için hava durumu gözlemleri ve tahminleri (METAR ve TAF raporları).

Kullanılabilir istasyonlar harita üzerinde sarı ve kırmızı noktalarla gösterilir.

İstasyonun adını görmek için fareyi noktanın üzerinde gezdirin.

Sonrasında hava gözlem ve tahminlerini görmek için tıklayın.

Haritayı değiştirmek için: yaklaştırmak için siyah artı işaretli yeşil düğmeye ve uzaklaştırmak için de eksi işaretli düğmeye hızla tıklayın; bitişik haritalar için yeşil okları kullanın.


METAR-TAF: